sensor_id;sensor_type;location;lat;lon;timestamp;pressure;altitude;pressure_sealevel;temperature;humidity
35226;BME280;21813;49.686;21.766;2022-12-29T00:01:46;98682.31;;;1.30;100.00
35226;BME280;21813;49.686;21.766;2022-12-29T00:04:14;98684.13;;;1.28;100.00
35226;BME280;21813;49.686;21.766;2022-12-29T00:06:41;98684.00;;;1.31;100.00
35226;BME280;21813;49.686;21.766;2022-12-29T00:09:07;98684.00;;;1.31;100.00
35226;BME280;21813;49.686;21.766;2022-12-29T00:11:34;98680.41;;;1.36;100.00
35226;BME280;21813;49.686;21.766;2022-12-29T00:13:59;98682.09;;;1.37;100.00
35226;BME280;21813;49.686;21.766;2022-12-29T00:16:45;98665.00;;;1.36;100.00
35226;BME280;21813;49.686;21.766;2022-12-29T00:19:11;98680.19;;;1.42;100.00
35226;BME280;21813;49.686;21.766;2022-12-29T00:21:57;98678.50;;;1.41;100.00
35226;BME280;21813;49.686;21.766;2022-12-29T00:24:45;98670.06;;;1.39;100.00
35226;BME280;21813;49.686;21.766;2022-12-29T00:27:32;98683.53;;;1.44;100.00
35226;BME280;21813;49.686;21.766;2022-12-29T00:30:18;98672.44;;;1.43;100.00
35226;BME280;21813;49.686;21.766;2022-12-29T00:33:19;98672.38;;;1.45;100.00
35226;BME280;21813;49.686;21.766;2022-12-29T00:36:32;98678.16;;;1.50;100.00
35226;BME280;21813;49.686;21.766;2022-12-29T00:39:04;98700.38;;;1.51;100.00
35226;BME280;21813;49.686;21.766;2022-12-29T00:41:50;98683.16;;;1.53;100.00
35226;BME280;21813;49.686;21.766;2022-12-29T00:44:35;98677.16;;;1.54;100.00
35226;BME280;21813;49.686;21.766;2022-12-29T00:47:01;98674.72;;;1.51;100.00
35226;BME280;21813;49.686;21.766;2022-12-29T00:49:31;98664.44;;;1.51;100.00
35226;BME280;21813;49.686;21.766;2022-12-29T00:54:26;98681.41;;;1.55;100.00
35226;BME280;21813;49.686;21.766;2022-12-29T00:56:52;98677.94;;;1.56;100.00
35226;BME280;21813;49.686;21.766;2022-12-29T00:59:19;98685.69;;;1.54;100.00
35226;BME280;21813;49.686;21.766;2022-12-29T01:01:46;98683.91;;;1.56;99.97
35226;BME280;21813;49.686;21.766;2022-12-29T01:04:14;98684.09;;;1.52;100.00
35226;BME280;21813;49.686;21.766;2022-12-29T01:09:17;98686.66;;;1.52;100.00
35226;BME280;21813;49.686;21.766;2022-12-29T01:12:04;98673.03;;;1.50;99.89
35226;BME280;21813;49.686;21.766;2022-12-29T01:14:31;98662.75;;;1.50;99.61
35226;BME280;21813;49.686;21.766;2022-12-29T01:16:58;98671.25;;;1.52;99.24
35226;BME280;21813;49.686;21.766;2022-12-29T01:19:33;98680.78;;;1.48;99.31
35226;BME280;21813;49.686;21.766;2022-12-29T01:22:00;98678.28;;;1.47;99.40
35226;BME280;21813;49.686;21.766;2022-12-29T01:24:26;98674.72;;;1.51;99.38
35226;BME280;21813;49.686;21.766;2022-12-29T01:26:52;98659.13;;;1.55;98.05
35226;BME280;21813;49.686;21.766;2022-12-29T01:29:19;98658.28;;;1.55;98.19
35226;BME280;21813;49.686;21.766;2022-12-29T01:31:46;98665.94;;;1.56;97.87
35226;BME280;21813;49.686;21.766;2022-12-29T01:34:12;98653.94;;;1.57;97.47
35226;BME280;21813;49.686;21.766;2022-12-29T01:36:39;98655.66;;;1.56;97.61
35226;BME280;21813;49.686;21.766;2022-12-29T01:39:04;98656.56;;;1.55;97.30
35226;BME280;21813;49.686;21.766;2022-12-29T01:41:32;98655.72;;;1.55;97.38
35226;BME280;21813;49.686;21.766;2022-12-29T01:43:59;98646.28;;;1.55;97.15
35226;BME280;21813;49.686;21.766;2022-12-29T01:46:41;98663.28;;;1.58;96.39
35226;BME280;21813;49.686;21.766;2022-12-29T01:49:18;98658.22;;;1.56;96.40
35226;BME280;21813;49.686;21.766;2022-12-29T01:51:51;98648.78;;;1.57;95.92
35226;BME280;21813;49.686;21.766;2022-12-29T01:54:36;98656.31;;;1.61;95.50
35226;BME280;21813;49.686;21.766;2022-12-29T01:57:11;98644.41;;;1.59;95.77
35226;BME280;21813;49.686;21.766;2022-12-29T01:59:42;98648.53;;;1.63;95.45
35226;BME280;21813;49.686;21.766;2022-12-29T02:02:09;98639.28;;;1.59;94.30
35226;BME280;21813;49.686;21.766;2022-12-29T02:04:40;98649.31;;;1.65;94.68
35226;BME280;21813;49.686;21.766;2022-12-29T02:07:18;98651.88;;;1.65;93.94
35226;BME280;21813;49.686;21.766;2022-12-29T02:09:47;98645.88;;;1.66;94.21
35226;BME280;21813;49.686;21.766;2022-12-29T02:12:14;98653.44;;;1.69;93.69
35226;BME280;21813;49.686;21.766;2022-12-29T02:14:40;98640.72;;;1.66;93.32
35226;BME280;21813;49.686;21.766;2022-12-29T02:17:18;98645.72;;;1.69;93.51
35226;BME280;21813;49.686;21.766;2022-12-29T02:20:37;98634.75;;;1.65;93.95
35226;BME280;21813;49.686;21.766;2022-12-29T02:28:48;98626.16;;;1.66;93.45
35226;BME280;21813;49.686;21.766;2022-12-29T02:37:04;98632.09;;;1.67;94.09
35226;BME280;21813;49.686;21.766;2022-12-29T02:42:04;98632.19;;;1.65;94.27
35226;BME280;21813;49.686;21.766;2022-12-29T02:47:26;98635.69;;;1.63;94.04
35226;BME280;21813;49.686;21.766;2022-12-29T02:50:19;98636.59;;;1.62;94.20
35226;BME280;21813;49.686;21.766;2022-12-29T02:52:50;98639.97;;;1.62;93.46
35226;BME280;21813;49.686;21.766;2022-12-29T02:55:18;98644.22;;;1.63;93.68
35226;BME280;21813;49.686;21.766;2022-12-29T02:57:44;98650.22;;;1.64;93.41
35226;BME280;21813;49.686;21.766;2022-12-29T03:00:13;98636.59;;;1.62;93.15
35226;BME280;21813;49.686;21.766;2022-12-29T03:03:09;98638.25;;;1.63;93.29
35226;BME280;21813;49.686;21.766;2022-12-29T03:08:34;98639.94;;;1.64;93.21
35226;BME280;21813;49.686;21.766;2022-12-29T03:11:09;98639.19;;;1.62;92.59
35226;BME280;21813;49.686;21.766;2022-12-29T03:14:17;98645.91;;;1.64;92.05
35226;BME280;21813;49.686;21.766;2022-12-29T03:17:19;98639.22;;;1.60;91.92
35226;BME280;21813;49.686;21.766;2022-12-29T03:19:51;98658.72;;;1.66;91.16
35226;BME280;21813;49.686;21.766;2022-12-29T03:22:22;98653.38;;;1.70;90.32
35226;BME280;21813;49.686;21.766;2022-12-29T03:25:08;98656.84;;;1.69;90.96
35226;BME280;21813;49.686;21.766;2022-12-29T03:27:47;98654.28;;;1.69;90.53
35226;BME280;21813;49.686;21.766;2022-12-29T03:30:14;98650.06;;;1.67;90.54
35226;BME280;21813;49.686;21.766;2022-12-29T03:32:48;98667.59;;;1.79;90.00
35226;BME280;21813;49.686;21.766;2022-12-29T03:35:17;98671.94;;;1.77;89.86
35226;BME280;21813;49.686;21.766;2022-12-29T03:37:52;98660.97;;;1.73;90.55
35226;BME280;21813;49.686;21.766;2022-12-29T03:40:22;98664.50;;;1.71;89.97
35226;BME280;21813;49.686;21.766;2022-12-29T03:42:55;98666.16;;;1.72;90.54
35226;BME280;21813;49.686;21.766;2022-12-29T03:45:24;98649.13;;;1.69;90.83
35226;BME280;21813;49.686;21.766;2022-12-29T03:47:52;98668.66;;;1.73;90.93
35226;BME280;21813;49.686;21.766;2022-12-29T03:50:18;98666.09;;;1.73;90.07
35226;BME280;21813;49.686;21.766;2022-12-29T03:52:44;98678.25;;;1.70;90.68
35226;BME280;21813;49.686;21.766;2022-12-29T03:55:10;98687.50;;;1.74;90.51
35226;BME280;21813;49.686;21.766;2022-12-29T03:57:37;98686.78;;;1.70;90.46
35226;BME280;21813;49.686;21.766;2022-12-29T04:00:05;98696.97;;;1.72;90.06
35226;BME280;21813;49.686;21.766;2022-12-29T04:02:41;98682.47;;;1.71;90.20
35226;BME280;21813;49.686;21.766;2022-12-29T04:05:07;98686.69;;;1.72;90.72
35226;BME280;21813;49.686;21.766;2022-12-29T04:07:33;98673.84;;;1.72;90.54
35226;BME280;21813;49.686;21.766;2022-12-29T04:09:59;98653.31;;;1.72;91.10
35226;BME280;21813;49.686;21.766;2022-12-29T04:12:25;98654.94;;;1.74;90.70
35226;BME280;21813;49.686;21.766;2022-12-29T04:14:51;98638.69;;;1.74;90.93
35226;BME280;21813;49.686;21.766;2022-12-29T04:17:17;98642.84;;;1.76;90.76
35226;BME280;21813;49.686;21.766;2022-12-29T04:19:44;98643.94;;;1.71;91.27
35226;BME280;21813;49.686;21.766;2022-12-29T04:22:11;98625.84;;;1.74;90.19
35226;BME280;21813;49.686;21.766;2022-12-29T04:24:37;98629.16;;;1.76;90.18
35226;BME280;21813;49.686;21.766;2022-12-29T04:27:07;98622.28;;;1.76;89.77
35226;BME280;21813;49.686;21.766;2022-12-29T04:29:33;98625.47;;;1.83;89.47
35226;BME280;21813;49.686;21.766;2022-12-29T04:31:59;98632.19;;;1.86;89.44
35226;BME280;21813;49.686;21.766;2022-12-29T04:34:25;98630.72;;;1.80;89.68
35226;BME280;21813;49.686;21.766;2022-12-29T04:36:51;98628.91;;;1.82;89.25
35226;BME280;21813;49.686;21.766;2022-12-29T04:39:17;98616.97;;;1.81;89.48
35226;BME280;21813;49.686;21.766;2022-12-29T04:41:44;98619.63;;;1.80;89.38
35226;BME280;21813;49.686;21.766;2022-12-29T04:44:10;98628.06;;;1.82;90.17
35226;BME280;21813;49.686;21.766;2022-12-29T04:46:37;98607.53;;;1.82;90.16
35226;BME280;21813;49.686;21.766;2022-12-29T04:49:02;98627.78;;;1.89;90.41
35226;BME280;21813;49.686;21.766;2022-12-29T04:51:34;98624.63;;;1.83;90.03
35226;BME280;21813;49.686;21.766;2022-12-29T04:54:05;98620.31;;;1.83;89.58
35226;BME280;21813;49.686;21.766;2022-12-29T04:56:32;98621.88;;;1.87;90.55
35226;BME280;21813;49.686;21.766;2022-12-29T04:58:57;98621.91;;;1.86;90.45
35226;BME280;21813;49.686;21.766;2022-12-29T05:01:25;98626.94;;;1.89;90.10
35226;BME280;21813;49.686;21.766;2022-12-29T05:03:51;98618.41;;;1.88;90.04
35226;BME280;21813;49.686;21.766;2022-12-29T05:06:17;98631.91;;;1.93;89.63
35226;BME280;21813;49.686;21.766;2022-12-29T05:08:43;98632.66;;;1.95;89.80
35226;BME280;21813;49.686;21.766;2022-12-29T05:11:10;98634.84;;;2.04;89.04
35226;BME280;21813;49.686;21.766;2022-12-29T05:13:35;98623.03;;;2.00;88.88
35226;BME280;21813;49.686;21.766;2022-12-29T05:16:02;98596.47;;;2.00;88.86
35226;BME280;21813;49.686;21.766;2022-12-29T05:18:27;98569.94;;;1.99;88.75
35226;BME280;21813;49.686;21.766;2022-12-29T05:20:55;98605.81;;;2.02;88.18
35226;BME280;21813;49.686;21.766;2022-12-29T05:23:20;98593.84;;;2.01;88.55
35226;BME280;21813;49.686;21.766;2022-12-29T05:25:48;98602.41;;;2.02;88.33
35226;BME280;21813;49.686;21.766;2022-12-29T05:28:14;98598.88;;;2.04;88.29
35226;BME280;21813;49.686;21.766;2022-12-29T05:30:40;98585.94;;;2.06;87.92
35226;BME280;21813;49.686;21.766;2022-12-29T05:33:06;98580.88;;;2.04;88.33
35226;BME280;21813;49.686;21.766;2022-12-29T05:35:33;98584.97;;;2.08;88.12
35226;BME280;21813;49.686;21.766;2022-12-29T05:38:02;98574.00;;;2.05;88.08
35226;BME280;21813;49.686;21.766;2022-12-29T05:40:38;98574.69;;;2.08;88.13
35226;BME280;21813;49.686;21.766;2022-12-29T05:43:03;98579.84;;;2.08;88.10
35226;BME280;21813;49.686;21.766;2022-12-29T05:45:30;98578.19;;;2.07;88.13
35226;BME280;21813;49.686;21.766;2022-12-29T05:47:56;98574.97;;;2.02;87.97
35226;BME280;21813;49.686;21.766;2022-12-29T05:50:22;98585.91;;;2.07;88.38
35226;BME280;21813;49.686;21.766;2022-12-29T05:52:48;98579.13;;;2.05;87.75
35226;BME280;21813;49.686;21.766;2022-12-29T05:55:15;98582.34;;;2.10;87.48
35226;BME280;21813;49.686;21.766;2022-12-29T05:57:41;98595.16;;;2.11;87.13
35226;BME280;21813;49.686;21.766;2022-12-29T06:00:09;98590.75;;;2.13;87.36
35226;BME280;21813;49.686;21.766;2022-12-29T06:02:35;98584.66;;;2.16;86.24
35226;BME280;21813;49.686;21.766;2022-12-29T06:05:03;98589.66;;;2.19;86.09
35226;BME280;21813;49.686;21.766;2022-12-29T06:07:29;98564.78;;;2.19;85.80
35226;BME280;21813;49.686;21.766;2022-12-29T06:09:56;98575.03;;;2.21;85.43
35226;BME280;21813;49.686;21.766;2022-12-29T06:12:22;98571.72;;;2.17;85.30
35226;BME280;21813;49.686;21.766;2022-12-29T06:14:49;98574.19;;;2.20;85.46
35226;BME280;21813;49.686;21.766;2022-12-29T06:17:15;98576.75;;;2.20;85.24
35226;BME280;21813;49.686;21.766;2022-12-29T06:19:42;98572.50;;;2.19;85.92
35226;BME280;21813;49.686;21.766;2022-12-29T06:22:09;98570.84;;;2.18;85.81
35226;BME280;21813;49.686;21.766;2022-12-29T06:24:38;98561.97;;;2.26;85.52
35226;BME280;21813;49.686;21.766;2022-12-29T06:27:04;98575.72;;;2.25;85.66
35226;BME280;21813;49.686;21.766;2022-12-29T06:29:32;98576.63;;;2.23;85.86
35226;BME280;21813;49.686;21.766;2022-12-29T06:31:58;98569.16;;;2.17;85.91
35226;BME280;21813;49.686;21.766;2022-12-29T06:34:24;98587.69;;;2.26;85.33
35226;BME280;21813;49.686;21.766;2022-12-29T06:36:51;98592.84;;;2.26;85.73
35226;BME280;21813;49.686;21.766;2022-12-29T06:39:18;98586.97;;;2.22;85.99
35226;BME280;21813;49.686;21.766;2022-12-29T06:41:44;98588.72;;;2.21;86.27
35226;BME280;21813;49.686;21.766;2022-12-29T06:44:10;98577.78;;;2.16;86.94
35226;BME280;21813;49.686;21.766;2022-12-29T06:46:36;98597.31;;;2.20;86.71
35226;BME280;21813;49.686;21.766;2022-12-29T06:49:04;98598.41;;;2.15;87.13
35226;BME280;21813;49.686;21.766;2022-12-29T06:51:30;98599.66;;;2.27;86.37
35226;BME280;21813;49.686;21.766;2022-12-29T06:53:57;98605.75;;;2.24;86.58
35226;BME280;21813;49.686;21.766;2022-12-29T06:56:23;98593.22;;;2.16;87.05
35226;BME280;21813;49.686;21.766;2022-12-29T06:58:50;98588.19;;;2.13;87.53
35226;BME280;21813;49.686;21.766;2022-12-29T07:01:16;98596.69;;;2.15;87.48
35226;BME280;21813;49.686;21.766;2022-12-29T07:03:43;98609.53;;;2.15;87.43
35226;BME280;21813;49.686;21.766;2022-12-29T07:06:09;98609.78;;;2.09;88.03
35226;BME280;21813;49.686;21.766;2022-12-29T07:08:35;98613.00;;;2.14;87.53
35226;BME280;21813;49.686;21.766;2022-12-29T07:11:01;98624.13;;;2.15;88.02
35226;BME280;21813;49.686;21.766;2022-12-29T07:13:30;98622.41;;;2.15;87.78
35226;BME280;21813;49.686;21.766;2022-12-29T07:15:55;98623.25;;;2.16;88.03
35226;BME280;21813;49.686;21.766;2022-12-29T07:18:22;98620.72;;;2.14;88.28
35226;BME280;21813;49.686;21.766;2022-12-29T07:20:48;98618.78;;;2.19;88.01
35226;BME280;21813;49.686;21.766;2022-12-29T07:23:15;98632.34;;;2.23;87.86
35226;BME280;21813;49.686;21.766;2022-12-29T07:25:41;98628.19;;;2.20;87.97
35226;BME280;21813;49.686;21.766;2022-12-29T07:28:08;98619.50;;;2.23;87.97
35226;BME280;21813;49.686;21.766;2022-12-29T07:30:36;98611.59;;;2.28;87.15
35226;BME280;21813;49.686;21.766;2022-12-29T07:33:04;98602.22;;;2.27;87.15
35226;BME280;21813;49.686;21.766;2022-12-29T07:35:30;98596.94;;;2.30;87.31
35226;BME280;21813;49.686;21.766;2022-12-29T07:37:57;98607.72;;;2.38;86.71
35226;BME280;21813;49.686;21.766;2022-12-29T07:40:23;98609.16;;;2.45;86.25
35226;BME280;21813;49.686;21.766;2022-12-29T07:42:49;98618.19;;;2.53;86.59
35226;BME280;21813;49.686;21.766;2022-12-29T07:45:15;98602.03;;;2.50;86.57
35226;BME280;21813;49.686;21.766;2022-12-29T07:47:42;98607.91;;;2.53;86.28
35226;BME280;21813;49.686;21.766;2022-12-29T07:50:08;98618.75;;;2.60;86.59
35226;BME280;21813;49.686;21.766;2022-12-29T07:52:36;98601.66;;;2.59;86.36
35226;BME280;21813;49.686;21.766;2022-12-29T07:55:01;98604.97;;;2.61;86.08
35226;BME280;21813;49.686;21.766;2022-12-29T07:57:30;98600.47;;;2.66;86.09
35226;BME280;21813;49.686;21.766;2022-12-29T07:59:56;98582.47;;;2.66;85.77
35226;BME280;21813;49.686;21.766;2022-12-29T08:02:26;98599.16;;;2.76;85.52
35226;BME280;21813;49.686;21.766;2022-12-29T08:04:52;98591.25;;;2.81;85.46
35226;BME280;21813;49.686;21.766;2022-12-29T08:07:22;98595.28;;;2.86;85.16
35226;BME280;21813;49.686;21.766;2022-12-29T08:09:54;98581.63;;;2.84;85.66
35226;BME280;21813;49.686;21.766;2022-12-29T08:12:20;98584.22;;;2.84;84.87
35226;BME280;21813;49.686;21.766;2022-12-29T08:21:19;98587.19;;;2.94;85.33
35226;BME280;21813;49.686;21.766;2022-12-29T08:23:52;98574.28;;;2.95;84.87
35226;BME280;21813;49.686;21.766;2022-12-29T08:26:17;98577.47;;;3.00;84.95
35226;BME280;21813;49.686;21.766;2022-12-29T08:28:44;98573.97;;;3.01;84.41
35226;BME280;21813;49.686;21.766;2022-12-29T08:31:10;98573.13;;;3.01;84.03
35226;BME280;21813;49.686;21.766;2022-12-29T08:33:36;98569.75;;;3.00;84.39
35226;BME280;21813;49.686;21.766;2022-12-29T08:36:03;98575.59;;;3.04;83.68
35226;BME280;21813;49.686;21.766;2022-12-29T08:38:30;98562.56;;;3.07;84.08
35226;BME280;21813;49.686;21.766;2022-12-29T08:40:58;98563.41;;;3.07;83.76
35226;BME280;21813;49.686;21.766;2022-12-29T08:43:26;98558.09;;;3.10;83.50
35226;BME280;21813;49.686;21.766;2022-12-29T08:45:52;98557.19;;;3.11;83.38
35226;BME280;21813;49.686;21.766;2022-12-29T08:48:17;98561.44;;;3.13;84.05
35226;BME280;21813;49.686;21.766;2022-12-29T08:50:45;98557.97;;;3.14;83.29
35226;BME280;21813;49.686;21.766;2022-12-29T08:53:12;98547.66;;;3.14;83.09
35226;BME280;21813;49.686;21.766;2022-12-29T08:55:37;98552.66;;;3.17;82.88
35226;BME280;21813;49.686;21.766;2022-12-29T08:58:05;98542.22;;;3.20;83.79
35226;BME280;21813;49.686;21.766;2022-12-29T09:00:30;98552.38;;;3.23;83.68
35226;BME280;21813;49.686;21.766;2022-12-29T09:02:57;98547.97;;;3.25;83.96
35226;BME280;21813;49.686;21.766;2022-12-29T09:05:23;98543.59;;;3.27;83.89
35226;BME280;21813;49.686;21.766;2022-12-29T09:07:51;98540.88;;;3.30;83.32
35226;BME280;21813;49.686;21.766;2022-12-29T09:10:17;98544.84;;;3.37;83.61
35226;BME280;21813;49.686;21.766;2022-12-29T09:12:44;98538.00;;;3.36;83.43
35226;BME280;21813;49.686;21.766;2022-12-29T09:15:09;98537.00;;;3.38;83.29
35226;BME280;21813;49.686;21.766;2022-12-29T09:17:57;98542.72;;;3.45;83.20
35226;BME280;21813;49.686;21.766;2022-12-29T09:20:34;98557.13;;;3.49;83.15
35226;BME280;21813;49.686;21.766;2022-12-29T09:23:04;98551.06;;;3.50;83.28
35226;BME280;21813;49.686;21.766;2022-12-29T09:25:31;98540.75;;;3.50;82.98
35226;BME280;21813;49.686;21.766;2022-12-29T09:28:02;98563.03;;;3.51;82.96
35226;BME280;21813;49.686;21.766;2022-12-29T09:30:32;98548.38;;;3.51;83.53
35226;BME280;21813;49.686;21.766;2022-12-29T09:32:59;98550.78;;;3.56;82.81
35226;BME280;21813;49.686;21.766;2022-12-29T09:35:24;98544.63;;;3.59;83.43
35226;BME280;21813;49.686;21.766;2022-12-29T09:37:51;98528.16;;;3.61;82.52
35226;BME280;21813;49.686;21.766;2022-12-29T09:40:26;98541.53;;;3.69;82.48
35226;BME280;21813;49.686;21.766;2022-12-29T09:45:36;98519.44;;;3.81;81.61
35226;BME280;21813;49.686;21.766;2022-12-29T09:48:14;98497.69;;;3.86;81.41
35226;BME280;21813;49.686;21.766;2022-12-29T09:50:44;98496.63;;;3.90;81.79
35226;BME280;21813;49.686;21.766;2022-12-29T09:53:19;98496.53;;;3.92;81.52
35226;BME280;21813;49.686;21.766;2022-12-29T09:55:49;98504.19;;;3.93;81.12
35226;BME280;21813;49.686;21.766;2022-12-29T09:58:29;98504.06;;;3.96;81.24
35226;BME280;21813;49.686;21.766;2022-12-29T10:03:45;98481.50;;;4.00;81.72
35226;BME280;21813;49.686;21.766;2022-12-29T10:06:39;98489.91;;;4.04;81.54
35226;BME280;21813;49.686;21.766;2022-12-29T10:14:53;98461.34;;;4.24;81.02
35226;BME280;21813;49.686;21.766;2022-12-29T10:25:22;98474.03;;;4.60;80.12
35226;BME280;21813;49.686;21.766;2022-12-29T10:27:49;98461.53;;;4.68;79.45
35226;BME280;21813;49.686;21.766;2022-12-29T10:30:17;98455.22;;;4.73;78.72
35226;BME280;21813;49.686;21.766;2022-12-29T10:32:58;98459.47;;;4.74;79.35
35226;BME280;21813;49.686;21.766;2022-12-29T10:39:31;98462.53;;;4.81;79.13
35226;BME280;21813;49.686;21.766;2022-12-29T10:42:40;98434.38;;;4.76;79.72
35226;BME280;21813;49.686;21.766;2022-12-29T10:49:41;98433.66;;;4.74;78.57
35226;BME280;21813;49.686;21.766;2022-12-29T10:52:10;98434.72;;;4.70;78.72
35226;BME280;21813;49.686;21.766;2022-12-29T10:54:44;98435.72;;;4.68;78.03
35226;BME280;21813;49.686;21.766;2022-12-29T10:59:45;98427.56;;;4.60;78.10
35226;BME280;21813;49.686;21.766;2022-12-29T11:02:45;98423.41;;;4.57;78.35
35226;BME280;21813;49.686;21.766;2022-12-29T11:08:13;98436.91;;;4.62;78.00
35226;BME280;21813;49.686;21.766;2022-12-29T11:10:42;98421.56;;;4.59;78.66
35226;BME280;21813;49.686;21.766;2022-12-29T11:13:15;98440.22;;;4.64;78.67
35226;BME280;21813;49.686;21.766;2022-12-29T11:15:50;98436.47;;;4.70;79.00
35226;BME280;21813;49.686;21.766;2022-12-29T11:18:30;98438.56;;;4.79;79.16
35226;BME280;21813;49.686;21.766;2022-12-29T11:20:59;98417.81;;;4.80;79.41
35226;BME280;21813;49.686;21.766;2022-12-29T11:23:42;98441.38;;;4.90;79.06
35226;BME280;21813;49.686;21.766;2022-12-29T11:26:19;98445.53;;;4.93;79.59
35226;BME280;21813;49.686;21.766;2022-12-29T11:31:51;98450.50;;;4.96;80.52
35226;BME280;21813;49.686;21.766;2022-12-29T11:34:19;98460.50;;;5.02;79.98
35226;BME280;21813;49.686;21.766;2022-12-29T11:36:47;98463.03;;;5.03;79.92
35226;BME280;21813;49.686;21.766;2022-12-29T11:42:01;98473.81;;;5.10;80.33
35226;BME280;21813;49.686;21.766;2022-12-29T11:44:31;98451.34;;;5.12;79.75
35226;BME280;21813;49.686;21.766;2022-12-29T11:47:01;98450.50;;;5.11;80.33
35226;BME280;21813;49.686;21.766;2022-12-29T11:49:27;98465.13;;;5.26;79.82
35226;BME280;21813;49.686;21.766;2022-12-29T11:51:54;98473.81;;;5.25;79.68
35226;BME280;21813;49.686;21.766;2022-12-29T11:54:28;98466.38;;;5.19;79.75
35226;BME280;21813;49.686;21.766;2022-12-29T11:56:57;98484.66;;;5.16;80.10
35226;BME280;21813;49.686;21.766;2022-12-29T12:04:49;98466.00;;;5.11;79.82
35226;BME280;21813;49.686;21.766;2022-12-29T12:07:37;98449.69;;;4.95;80.60
35226;BME280;21813;49.686;21.766;2022-12-29T12:10:29;98467.88;;;4.94;80.78
35226;BME280;21813;49.686;21.766;2022-12-29T12:15:42;98475.34;;;4.82;81.76
35226;BME280;21813;49.686;21.766;2022-12-29T12:18:46;98474.53;;;4.82;82.36
35226;BME280;21813;49.686;21.766;2022-12-29T12:21:20;98452.38;;;4.78;81.81
35226;BME280;21813;49.686;21.766;2022-12-29T12:26:59;98445.97;;;4.69;82.09
35226;BME280;21813;49.686;21.766;2022-12-29T12:29:38;98450.53;;;4.64;82.54
35226;BME280;21813;49.686;21.766;2022-12-29T12:32:39;98438.56;;;4.63;83.15
35226;BME280;21813;49.686;21.766;2022-12-29T12:35:13;98437.88;;;4.60;82.72
35226;BME280;21813;49.686;21.766;2022-12-29T12:43:45;98436.25;;;4.43;84.15
35226;BME280;21813;49.686;21.766;2022-12-29T13:01:33;98477.34;;;4.46;85.71
35226;BME280;21813;49.686;21.766;2022-12-29T13:04:41;98475.38;;;4.51;84.63
35226;BME280;21813;49.686;21.766;2022-12-29T13:10:47;98461.34;;;4.39;86.07
35226;BME280;21813;49.686;21.766;2022-12-29T13:13:52;98445.22;;;4.36;86.91
35226;BME280;21813;49.686;21.766;2022-12-29T13:19:57;98452.78;;;4.23;87.92
35226;BME280;21813;49.686;21.766;2022-12-29T13:28:22;98465.00;;;4.20;88.60
35226;BME280;21813;49.686;21.766;2022-12-29T13:37:20;98478.16;;;4.15;89.33
35226;BME280;21813;49.686;21.766;2022-12-29T13:40:02;98470.78;;;4.08;89.82
35226;BME280;21813;49.686;21.766;2022-12-29T13:42:49;98480.38;;;4.06;89.70
35226;BME280;21813;49.686;21.766;2022-12-29T13:46:10;98473.72;;;4.02;89.57
35226;BME280;21813;49.686;21.766;2022-12-29T13:51:55;98493.41;;;4.03;90.06
35226;BME280;21813;49.686;21.766;2022-12-29T13:54:35;98492.66;;;4.00;90.46
35226;BME280;21813;49.686;21.766;2022-12-29T13:59:54;98494.56;;;3.97;90.44
35226;BME280;21813;49.686;21.766;2022-12-29T14:05:28;98478.56;;;3.90;91.33
35226;BME280;21813;49.686;21.766;2022-12-29T14:08:17;98488.88;;;3.90;91.23
35226;BME280;21813;49.686;21.766;2022-12-29T14:10:49;98482.81;;;3.91;91.18
35226;BME280;21813;49.686;21.766;2022-12-29T14:13:21;98481.38;;;3.86;91.77
35226;BME280;21813;49.686;21.766;2022-12-29T14:18:31;98498.34;;;3.90;91.53
35226;BME280;21813;49.686;21.766;2022-12-29T14:21:08;98487.53;;;3.83;91.71
35226;BME280;21813;49.686;21.766;2022-12-29T14:23:43;98487.69;;;3.80;92.20
35226;BME280;21813;49.686;21.766;2022-12-29T14:28:51;98486.34;;;3.73;92.98
35226;BME280;21813;49.686;21.766;2022-12-29T14:36:35;98500.59;;;3.63;93.78
35226;BME280;21813;49.686;21.766;2022-12-29T14:39:02;98505.91;;;3.60;93.99
35226;BME280;21813;49.686;21.766;2022-12-29T14:41:38;98519.69;;;3.59;94.34
35226;BME280;21813;49.686;21.766;2022-12-29T14:46:46;98504.22;;;3.59;94.46
35226;BME280;21813;49.686;21.766;2022-12-29T14:49:19;98508.47;;;3.60;94.76
35226;BME280;21813;49.686;21.766;2022-12-29T14:51:47;98501.03;;;3.54;94.59
35226;BME280;21813;49.686;21.766;2022-12-29T14:57:02;98509.84;;;3.50;94.85
35226;BME280;21813;49.686;21.766;2022-12-29T14:59:30;98510.81;;;3.47;95.05
35226;BME280;21813;49.686;21.766;2022-12-29T15:02:00;98514.22;;;3.48;95.37
35226;BME280;21813;49.686;21.766;2022-12-29T15:04:30;98499.97;;;3.41;95.30
35226;BME280;21813;49.686;21.766;2022-12-29T15:06:58;98499.06;;;3.42;95.92
35226;BME280;21813;49.686;21.766;2022-12-29T15:09:36;98505.13;;;3.41;96.07
35226;BME280;21813;49.686;21.766;2022-12-29T15:14:57;98501.09;;;3.35;96.58
35226;BME280;21813;49.686;21.766;2022-12-29T15:17:32;98473.00;;;3.31;96.96
35226;BME280;21813;49.686;21.766;2022-12-29T15:20:01;98474.66;;;3.32;97.01
35226;BME280;21813;49.686;21.766;2022-12-29T15:22:50;98481.34;;;3.36;97.17
35226;BME280;21813;49.686;21.766;2022-12-29T15:25:17;98467.84;;;3.31;97.53
35226;BME280;21813;49.686;21.766;2022-12-29T15:27:59;98466.03;;;3.33;97.31
35226;BME280;21813;49.686;21.766;2022-12-29T15:30:25;98458.22;;;3.34;97.55
35226;BME280;21813;49.686;21.766;2022-12-29T15:32:52;98451.50;;;3.32;97.78
35226;BME280;21813;49.686;21.766;2022-12-29T15:35:27;98459.81;;;3.37;98.02
35226;BME280;21813;49.686;21.766;2022-12-29T15:37:55;98455.56;;;3.36;97.87
35226;BME280;21813;49.686;21.766;2022-12-29T15:40:30;98454.34;;;3.43;97.72
35226;BME280;21813;49.686;21.766;2022-12-29T15:45:34;98449.28;;;3.41;97.69
35226;BME280;21813;49.686;21.766;2022-12-29T15:48:03;98441.78;;;3.37;98.07
35226;BME280;21813;49.686;21.766;2022-12-29T15:50:32;98437.53;;;3.36;97.97
35226;BME280;21813;49.686;21.766;2022-12-29T15:53:01;98422.09;;;3.36;97.77
35226;BME280;21813;49.686;21.766;2022-12-29T15:55:32;98430.66;;;3.36;98.34